sensor_id;sensor_type;location;lat;lon;timestamp;pressure;altitude;pressure_sealevel;temperature;humidity
28131;BME280;15418;42.634;23.374;2022-09-12T00:00:21;94098.81;;;14.52;100.00
28131;BME280;15418;42.634;23.374;2022-09-12T00:02:51;94126.91;;;14.75;100.00
28131;BME280;15418;42.634;23.374;2022-09-12T00:05:16;94151.16;;;14.76;100.00
28131;BME280;15418;42.634;23.374;2022-09-12T00:07:42;94137.22;;;14.64;100.00
28131;BME280;15418;42.634;23.374;2022-09-12T00:10:07;94127.56;;;14.58;100.00
28131;BME280;15418;42.634;23.374;2022-09-12T00:12:33;94100.47;;;14.39;100.00
28131;BME280;15418;42.634;23.374;2022-09-12T00:14:58;94087.06;;;14.28;100.00
28131;BME280;15418;42.634;23.374;2022-09-12T00:17:24;94145.13;;;14.66;100.00
28131;BME280;15418;42.634;23.374;2022-09-12T00:19:49;94168.94;;;14.74;100.00
28131;BME280;15418;42.634;23.374;2022-09-12T00:22:14;94167.78;;;14.66;100.00
28131;BME280;15418;42.634;23.374;2022-09-12T00:24:40;94157.66;;;14.67;100.00
28131;BME280;15418;42.634;23.374;2022-09-12T00:27:05;94122.19;;;14.30;100.00
28131;BME280;15418;42.634;23.374;2022-09-12T00:29:31;94153.66;;;14.36;100.00
28131;BME280;15418;42.634;23.374;2022-09-12T00:31:56;94151.97;;;14.40;100.00
28131;BME280;15418;42.634;23.374;2022-09-12T00:34:22;94120.50;;;14.20;100.00
28131;BME280;15418;42.634;23.374;2022-09-12T00:36:47;94144.81;;;14.30;100.00
28131;BME280;15418;42.634;23.374;2022-09-12T00:39:16;94158.47;;;14.53;100.00
28131;BME280;15418;42.634;23.374;2022-09-12T00:41:42;94170.28;;;14.62;100.00
28131;BME280;15418;42.634;23.374;2022-09-12T00:46:43;94165.53;;;14.54;100.00
28131;BME280;15418;42.634;23.374;2022-09-12T00:49:14;94139.00;;;14.46;100.00
28131;BME280;15418;42.634;23.374;2022-09-12T00:51:48;94168.47;;;14.58;100.00
28131;BME280;15418;42.634;23.374;2022-09-12T00:54:20;94146.31;;;14.37;100.00
28131;BME280;15418;42.634;23.374;2022-09-12T00:56:48;94142.34;;;14.43;100.00
28131;BME280;15418;42.634;23.374;2022-09-12T00:59:22;94125.22;;;14.28;100.00
28131;BME280;15418;42.634;23.374;2022-09-12T01:01:49;94165.16;;;14.47;100.00
28131;BME280;15418;42.634;23.374;2022-09-12T01:04:17;94141.06;;;14.26;100.00
28131;BME280;15418;42.634;23.374;2022-09-12T01:06:45;94140.97;;;14.31;100.00
28131;BME280;15418;42.634;23.374;2022-09-12T01:09:16;94128.31;;;14.13;100.00
28131;BME280;15418;42.634;23.374;2022-09-12T01:11:43;94120.03;;;14.18;100.00
28131;BME280;15418;42.634;23.374;2022-09-12T01:14:12;94140.16;;;14.31;100.00
28131;BME280;15418;42.634;23.374;2022-09-12T01:16:38;94143.66;;;14.09;100.00
28131;BME280;15418;42.634;23.374;2022-09-12T01:20:15;94142.94;;;14.17;100.00
28131;BME280;15418;42.634;23.374;2022-09-12T01:30:06;94136.09;;;14.06;100.00
28131;BME280;15418;42.634;23.374;2022-09-12T01:40:19;94107.66;;;13.84;100.00
28131;BME280;15418;42.634;23.374;2022-09-12T01:48:04;94108.38;;;13.76;100.00
28131;BME280;15418;42.634;23.374;2022-09-12T01:50:35;94112.41;;;13.64;100.00
28131;BME280;15418;42.634;23.374;2022-09-12T01:53:17;94133.78;;;13.85;100.00
28131;BME280;15418;42.634;23.374;2022-09-12T01:55:49;94128.16;;;13.81;100.00
28131;BME280;15418;42.634;23.374;2022-09-12T01:58:22;94110.09;;;13.72;100.00
28131;BME280;15418;42.634;23.374;2022-09-12T02:00:59;94101.72;;;13.68;100.00
28131;BME280;15418;42.634;23.374;2022-09-12T02:03:31;94106.66;;;13.66;100.00
28131;BME280;15418;42.634;23.374;2022-09-12T02:06:06;94114.66;;;13.62;100.00
28131;BME280;15418;42.634;23.374;2022-09-12T02:09:03;94126.34;;;13.77;100.00
28131;BME280;15418;42.634;23.374;2022-09-12T02:11:33;94116.06;;;13.74;100.00
28131;BME280;15418;42.634;23.374;2022-09-12T02:14:06;94108.69;;;13.60;100.00
28131;BME280;15418;42.634;23.374;2022-09-12T02:16:46;94119.19;;;13.53;100.00
28131;BME280;15418;42.634;23.374;2022-09-12T02:19:19;94139.75;;;13.59;100.00
28131;BME280;15418;42.634;23.374;2022-09-12T02:21:51;94104.06;;;13.47;100.00
28131;BME280;15418;42.634;23.374;2022-09-12T02:24:19;94115.75;;;13.47;100.00
28131;BME280;15418;42.634;23.374;2022-09-12T02:27:02;94143.78;;;13.62;100.00
28131;BME280;15418;42.634;23.374;2022-09-12T02:29:29;94112.66;;;13.40;100.00
28131;BME280;15418;42.634;23.374;2022-09-12T02:32:04;94115.41;;;13.35;100.00
28131;BME280;15418;42.634;23.374;2022-09-12T02:39:30;94146.31;;;13.44;100.00
28131;BME280;15418;42.634;23.374;2022-09-12T02:41:58;94137.50;;;13.33;100.00
28131;BME280;15418;42.634;23.374;2022-09-12T02:44:26;94134.06;;;13.28;100.00
28131;BME280;15418;42.634;23.374;2022-09-12T02:46:55;94143.69;;;13.39;100.00
28131;BME280;15418;42.634;23.374;2022-09-12T02:49:22;94137.19;;;13.35;100.00
28131;BME280;15418;42.634;23.374;2022-09-12T02:51:48;94128.34;;;13.29;100.00
28131;BME280;15418;42.634;23.374;2022-09-12T02:54:16;94124.19;;;13.32;100.00
28131;BME280;15418;42.634;23.374;2022-09-12T02:56:43;94138.53;;;13.38;100.00
28131;BME280;15418;42.634;23.374;2022-09-12T02:59:13;94125.09;;;13.27;100.00
28131;BME280;15418;42.634;23.374;2022-09-12T03:26:47;94154.03;;;13.37;100.00
28131;BME280;15418;42.634;23.374;2022-09-12T03:29:17;94147.22;;;13.40;100.00
28131;BME280;15418;42.634;23.374;2022-09-12T03:31:48;94134.69;;;13.39;100.00
28131;BME280;15418;42.634;23.374;2022-09-12T03:34:14;94123.97;;;13.14;100.00
28131;BME280;15418;42.634;23.374;2022-09-12T03:36:39;94142.16;;;13.33;100.00
28131;BME280;15418;42.634;23.374;2022-09-12T03:39:05;94139.50;;;13.28;100.00
28131;BME280;15418;42.634;23.374;2022-09-12T03:41:31;94134.25;;;13.31;100.00
28131;BME280;15418;42.634;23.374;2022-09-12T03:43:56;94126.09;;;13.31;100.00
28131;BME280;15418;42.634;23.374;2022-09-12T03:46:22;94150.84;;;13.49;100.00
28131;BME280;15418;42.634;23.374;2022-09-12T03:48:47;94129.78;;;13.41;100.00
28131;BME280;15418;42.634;23.374;2022-09-12T03:51:12;94116.81;;;13.32;100.00
28131;BME280;15418;42.634;23.374;2022-09-12T03:53:38;94145.41;;;13.49;100.00
28131;BME280;15418;42.634;23.374;2022-09-12T03:56:08;94153.47;;;13.40;100.00
28131;BME280;15418;42.634;23.374;2022-09-12T03:58:35;94144.25;;;13.22;100.00
28131;BME280;15418;42.634;23.374;2022-09-12T04:01:11;94150.31;;;13.33;100.00
28131;BME280;15418;42.634;23.374;2022-09-12T04:03:39;94130.31;;;13.24;100.00
28131;BME280;15418;42.634;23.374;2022-09-12T04:06:05;94156.38;;;13.44;100.00
28131;BME280;15418;42.634;23.374;2022-09-12T04:08:31;94129.13;;;13.16;100.00
28131;BME280;15418;42.634;23.374;2022-09-12T04:11:13;94155.28;;;13.45;100.00
28131;BME280;15418;42.634;23.374;2022-09-12T04:13:40;94118.53;;;13.28;100.00
28131;BME280;15418;42.634;23.374;2022-09-12T04:16:06;94162.22;;;13.51;100.00
28131;BME280;15418;42.634;23.374;2022-09-12T04:18:32;94157.63;;;13.51;100.00
28131;BME280;15418;42.634;23.374;2022-09-12T04:20:57;94163.25;;;13.55;100.00
28131;BME280;15418;42.634;23.374;2022-09-12T04:23:23;94155.31;;;13.59;100.00
28131;BME280;15418;42.634;23.374;2022-09-12T04:25:56;94161.25;;;13.75;100.00
28131;BME280;15418;42.634;23.374;2022-09-12T04:28:22;94141.59;;;13.64;100.00
28131;BME280;15418;42.634;23.374;2022-09-12T04:30:48;94170.94;;;13.81;100.00
28131;BME280;15418;42.634;23.374;2022-09-12T04:33:13;94165.06;;;13.88;100.00
28131;BME280;15418;42.634;23.374;2022-09-12T04:35:39;94162.97;;;13.85;100.00
28131;BME280;15418;42.634;23.374;2022-09-12T04:38:06;94141.78;;;13.67;100.00
28131;BME280;15418;42.634;23.374;2022-09-12T04:40:31;94155.41;;;13.67;100.00
28131;BME280;15418;42.634;23.374;2022-09-12T04:42:57;94159.84;;;13.77;100.00
28131;BME280;15418;42.634;23.374;2022-09-12T04:45:23;94167.50;;;13.75;100.00
28131;BME280;15418;42.634;23.374;2022-09-12T04:47:48;94150.44;;;13.70;100.00
28131;BME280;15418;42.634;23.374;2022-09-12T04:50:14;94168.09;;;13.86;100.00
28131;BME280;15418;42.634;23.374;2022-09-12T04:52:40;94146.31;;;13.58;100.00
28131;BME280;15418;42.634;23.374;2022-09-12T04:55:07;94163.25;;;13.83;100.00
28131;BME280;15418;42.634;23.374;2022-09-12T04:57:33;94179.50;;;14.02;100.00
28131;BME280;15418;42.634;23.374;2022-09-12T04:59:59;94172.00;;;14.08;100.00
28131;BME280;15418;42.634;23.374;2022-09-12T05:02:25;94169.78;;;14.10;100.00
28131;BME280;15418;42.634;23.374;2022-09-12T05:04:51;94162.81;;;14.18;100.00
28131;BME280;15418;42.634;23.374;2022-09-12T05:07:17;94171.81;;;14.18;100.00
28131;BME280;15418;42.634;23.374;2022-09-12T05:09:43;94145.34;;;14.19;100.00
28131;BME280;15418;42.634;23.374;2022-09-12T05:12:09;94138.19;;;14.09;100.00
28131;BME280;15418;42.634;23.374;2022-09-12T05:14:35;94139.56;;;14.20;100.00
28131;BME280;15418;42.634;23.374;2022-09-12T05:17:01;94154.88;;;14.44;100.00
28131;BME280;15418;42.634;23.374;2022-09-12T05:19:27;94166.44;;;14.63;100.00
28131;BME280;15418;42.634;23.374;2022-09-12T05:21:54;94132.31;;;14.52;100.00
28131;BME280;15418;42.634;23.374;2022-09-12T05:24:20;94175.38;;;14.78;100.00
28131;BME280;15418;42.634;23.374;2022-09-12T05:26:46;94149.16;;;14.68;100.00
28131;BME280;15418;42.634;23.374;2022-09-12T05:29:11;94137.00;;;14.74;100.00
28131;BME280;15418;42.634;23.374;2022-09-12T05:31:37;94133.88;;;14.81;100.00
28131;BME280;15418;42.634;23.374;2022-09-12T05:34:03;94120.59;;;14.88;100.00
28131;BME280;15418;42.634;23.374;2022-09-12T05:36:31;94167.19;;;15.23;100.00
28131;BME280;15418;42.634;23.374;2022-09-12T05:38:58;94155.88;;;15.39;100.00
28131;BME280;15418;42.634;23.374;2022-09-12T05:41:29;94136.38;;;15.23;100.00
28131;BME280;15418;42.634;23.374;2022-09-12T05:44:03;94143.03;;;15.08;100.00
28131;BME280;15418;42.634;23.374;2022-09-12T05:46:31;94160.25;;;15.17;100.00
28131;BME280;15418;42.634;23.374;2022-09-12T05:49:01;94143.63;;;15.27;100.00
28131;BME280;15418;42.634;23.374;2022-09-12T05:51:27;94160.50;;;15.38;100.00
28131;BME280;15418;42.634;23.374;2022-09-12T05:53:57;94148.81;;;15.38;100.00
28131;BME280;15418;42.634;23.374;2022-09-12T05:56:25;94142.84;;;15.36;100.00
28131;BME280;15418;42.634;23.374;2022-09-12T05:59:09;94122.25;;;15.30;100.00
28131;BME280;15418;42.634;23.374;2022-09-12T06:01:36;94147.00;;;15.65;100.00
28131;BME280;15418;42.634;23.374;2022-09-12T06:04:05;94134.44;;;15.55;100.00
28131;BME280;15418;42.634;23.374;2022-09-12T06:06:34;94122.00;;;15.40;100.00
28131;BME280;15418;42.634;23.374;2022-09-12T06:09:02;94127.84;;;15.56;100.00
28131;BME280;15418;42.634;23.374;2022-09-12T06:11:30;94137.53;;;15.71;100.00
28131;BME280;15418;42.634;23.374;2022-09-12T06:13:57;94134.97;;;15.74;100.00
28131;BME280;15418;42.634;23.374;2022-09-12T06:16:26;94123.94;;;15.88;100.00
28131;BME280;15418;42.634;23.374;2022-09-12T06:18:54;94091.81;;;15.85;100.00
28131;BME280;15418;42.634;23.374;2022-09-12T06:21:21;94120.97;;;16.07;100.00
28131;BME280;15418;42.634;23.374;2022-09-12T06:23:46;94118.22;;;16.07;100.00
28131;BME280;15418;42.634;23.374;2022-09-12T06:26:14;94120.97;;;16.16;100.00
28131;BME280;15418;42.634;23.374;2022-09-12T06:28:42;94122.06;;;16.06;100.00
28131;BME280;15418;42.634;23.374;2022-09-12T06:31:14;94141.03;;;16.03;100.00
28131;BME280;15418;42.634;23.374;2022-09-12T06:33:42;94120.78;;;16.04;100.00
28131;BME280;15418;42.634;23.374;2022-09-12T06:36:14;94147.63;;;16.11;100.00
28131;BME280;15418;42.634;23.374;2022-09-12T06:38:40;94145.25;;;16.27;100.00
28131;BME280;15418;42.634;23.374;2022-09-12T06:41:09;94124.66;;;16.20;100.00
28131;BME280;15418;42.634;23.374;2022-09-12T06:43:36;94151.56;;;16.36;100.00
28131;BME280;15418;42.634;23.374;2022-09-12T06:46:03;94138.03;;;16.75;100.00
28131;BME280;15418;42.634;23.374;2022-09-12T06:48:28;94095.34;;;17.17;100.00
28131;BME280;15418;42.634;23.374;2022-09-12T06:50:59;94144.94;;;17.72;100.00
28131;BME280;15418;42.634;23.374;2022-09-12T06:53:26;94142.59;;;18.73;100.00
28131;BME280;15418;42.634;23.374;2022-09-12T06:58:36;94133.75;;;19.68;100.00
28131;BME280;15418;42.634;23.374;2022-09-12T07:01:10;94137.03;;;20.07;100.00
28131;BME280;15418;42.634;23.374;2022-09-12T07:03:37;94136.69;;;20.86;100.00
28131;BME280;15418;42.634;23.374;2022-09-12T07:06:04;94152.66;;;20.68;100.00
28131;BME280;15418;42.634;23.374;2022-09-12T07:08:30;94156.50;;;22.09;100.00
28131;BME280;15418;42.634;23.374;2022-09-12T07:10:58;94131.22;;;22.07;92.01
28131;BME280;15418;42.634;23.374;2022-09-12T07:13:25;94123.56;;;20.96;94.57
28131;BME280;15418;42.634;23.374;2022-09-12T07:15:51;94160.22;;;21.12;96.28
28131;BME280;15418;42.634;23.374;2022-09-12T07:18:16;94159.94;;;21.58;95.68
28131;BME280;15418;42.634;23.374;2022-09-12T07:20:42;94162.00;;;21.93;90.46
28131;BME280;15418;42.634;23.374;2022-09-12T07:23:08;94164.75;;;22.25;88.42
28131;BME280;15418;42.634;23.374;2022-09-12T07:25:33;94140.13;;;22.00;86.26
28131;BME280;15418;42.634;23.374;2022-09-12T07:27:59;94163.75;;;21.25;91.15
28131;BME280;15418;42.634;23.374;2022-09-12T07:30:24;94151.88;;;21.53;90.71
28131;BME280;15418;42.634;23.374;2022-09-12T07:32:52;94163.69;;;22.14;87.99
28131;BME280;15418;42.634;23.374;2022-09-12T07:35:19;94155.81;;;23.19;83.06
28131;BME280;15418;42.634;23.374;2022-09-12T07:37:44;94147.31;;;23.71;76.52
28131;BME280;15418;42.634;23.374;2022-09-12T07:40:10;94161.25;;;23.98;73.54
28131;BME280;15418;42.634;23.374;2022-09-12T07:42:35;94158.63;;;23.03;79.29
28131;BME280;15418;42.634;23.374;2022-09-12T07:45:01;94164.00;;;22.60;81.36
28131;BME280;15418;42.634;23.374;2022-09-12T07:47:26;94148.50;;;21.44;86.30
28131;BME280;15418;42.634;23.374;2022-09-12T07:49:52;94118.50;;;21.26;88.80
28131;BME280;15418;42.634;23.374;2022-09-12T07:52:17;94144.97;;;22.55;81.27
28131;BME280;15418;42.634;23.374;2022-09-12T07:54:43;94148.25;;;21.49;83.50
28131;BME280;15418;42.634;23.374;2022-09-12T07:57:09;94151.66;;;21.01;90.18
28131;BME280;15418;42.634;23.374;2022-09-12T07:59:34;94131.28;;;21.63;85.67
28131;BME280;15418;42.634;23.374;2022-09-12T08:01:59;94137.44;;;21.72;83.30
28131;BME280;15418;42.634;23.374;2022-09-12T08:04:25;94153.19;;;22.04;85.01
28131;BME280;15418;42.634;23.374;2022-09-12T08:06:50;94157.19;;;22.74;76.06
28131;BME280;15418;42.634;23.374;2022-09-12T08:09:16;94141.09;;;21.92;78.33
28131;BME280;15418;42.634;23.374;2022-09-12T08:11:42;94141.31;;;22.35;77.96
28131;BME280;15418;42.634;23.374;2022-09-12T08:14:08;94147.13;;;21.21;84.51
28131;BME280;15418;42.634;23.374;2022-09-12T08:16:33;94166.53;;;22.33;79.72
28131;BME280;15418;42.634;23.374;2022-09-12T08:19:01;94176.19;;;22.40;79.95
28131;BME280;15418;42.634;23.374;2022-09-12T08:21:28;94151.41;;;22.27;75.45
28131;BME280;15418;42.634;23.374;2022-09-12T08:24:02;94168.84;;;22.31;81.06
28131;BME280;15418;42.634;23.374;2022-09-12T08:26:29;94116.84;;;21.37;80.27
28131;BME280;15418;42.634;23.374;2022-09-12T08:28:55;94154.34;;;21.71;84.28
28131;BME280;15418;42.634;23.374;2022-09-12T08:31:22;94155.00;;;22.63;78.81
28131;BME280;15418;42.634;23.374;2022-09-12T08:33:48;94150.59;;;23.76;71.64
28131;BME280;15418;42.634;23.374;2022-09-12T08:36:16;94150.56;;;23.96;69.30
28131;BME280;15418;42.634;23.374;2022-09-12T08:38:44;94151.44;;;23.81;66.50
28131;BME280;15418;42.634;23.374;2022-09-12T08:41:39;94164.22;;;23.07;73.05
28131;BME280;15418;42.634;23.374;2022-09-12T08:52:22;94156.09;;;21.63;84.29
28131;BME280;15418;42.634;23.374;2022-09-12T08:54:50;94149.72;;;21.30;86.24
28131;BME280;15418;42.634;23.374;2022-09-12T08:57:15;94140.00;;;20.92;89.32
28131;BME280;15418;42.634;23.374;2022-09-12T08:59:44;94161.53;;;20.24;93.65
28131;BME280;15418;42.634;23.374;2022-09-12T09:02:38;94128.91;;;20.76;88.89
28131;BME280;15418;42.634;23.374;2022-09-12T09:06:20;94151.84;;;20.68;88.67
28131;BME280;15418;42.634;23.374;2022-09-12T09:11:01;94145.50;;;20.14;92.69
28131;BME280;15418;42.634;23.374;2022-09-12T09:16:35;94140.81;;;21.65;83.26
28131;BME280;15418;42.634;23.374;2022-09-12T09:19:19;94133.00;;;21.83;77.81
28131;BME280;15418;42.634;23.374;2022-09-12T09:22:01;94117.03;;;21.45;81.63
28131;BME280;15418;42.634;23.374;2022-09-12T09:24:36;94137.00;;;21.86;80.39
28131;BME280;15418;42.634;23.374;2022-09-12T09:27:18;94118.75;;;21.97;80.04
28131;BME280;15418;42.634;23.374;2022-09-12T09:29:52;94110.66;;;22.05;77.47
28131;BME280;15418;42.634;23.374;2022-09-12T09:32:26;94130.47;;;22.26;76.28
28131;BME280;15418;42.634;23.374;2022-09-12T09:34:52;94106.34;;;21.43;81.68
28131;BME280;15418;42.634;23.374;2022-09-12T09:37:19;94110.75;;;21.76;79.98
28131;BME280;15418;42.634;23.374;2022-09-12T09:40:28;94108.25;;;21.71;81.57
28131;BME280;15418;42.634;23.374;2022-09-12T09:43:04;94129.50;;;22.35;75.59
28131;BME280;15418;42.634;23.374;2022-09-12T09:45:36;94114.81;;;22.14;75.75
28131;BME280;15418;42.634;23.374;2022-09-12T09:48:24;94110.38;;;21.62;78.65
28131;BME280;15418;42.634;23.374;2022-09-12T09:50:52;94097.03;;;21.03;81.97
28131;BME280;15418;42.634;23.374;2022-09-12T09:53:39;94115.22;;;21.36;82.52
28131;BME280;15418;42.634;23.374;2022-09-12T09:58:43;94109.78;;;20.55;86.09
28131;BME280;15418;42.634;23.374;2022-09-12T10:01:14;94120.38;;;20.40;87.00
28131;BME280;15418;42.634;23.374;2022-09-12T10:03:47;94110.00;;;20.62;89.43
28131;BME280;15418;42.634;23.374;2022-09-12T10:06:31;94118.75;;;20.39;86.61
28131;BME280;15418;42.634;23.374;2022-09-12T10:09:16;94105.28;;;20.09;86.56
28131;BME280;15418;42.634;23.374;2022-09-12T10:11:43;94111.56;;;19.85;87.75
28131;BME280;15418;42.634;23.374;2022-09-12T10:14:38;94111.56;;;20.10;90.21
28131;BME280;15418;42.634;23.374;2022-09-12T10:19:47;94078.94;;;19.13;90.67
28131;BME280;15418;42.634;23.374;2022-09-12T10:22:19;94116.66;;;19.50;87.90
28131;BME280;15418;42.634;23.374;2022-09-12T10:24:54;94076.66;;;19.27;89.87
28131;BME280;15418;42.634;23.374;2022-09-12T10:27:24;94106.59;;;19.54;90.50
28131;BME280;15418;42.634;23.374;2022-09-12T10:32:23;94098.50;;;19.70;91.08
28131;BME280;15418;42.634;23.374;2022-09-12T10:34:53;94123.84;;;20.00;90.71
28131;BME280;15418;42.634;23.374;2022-09-12T10:37:33;94100.81;;;20.05;88.04
28131;BME280;15418;42.634;23.374;2022-09-12T10:40:02;94098.41;;;20.03;89.59
28131;BME280;15418;42.634;23.374;2022-09-12T10:42:51;94092.06;;;20.15;88.58
28131;BME280;15418;42.634;23.374;2022-09-12T10:47:50;94091.22;;;20.39;89.10
28131;BME280;15418;42.634;23.374;2022-09-12T10:52:52;94103.38;;;20.38;88.18
28131;BME280;15418;42.634;23.374;2022-09-12T10:55:24;94105.47;;;20.41;87.91
28131;BME280;15418;42.634;23.374;2022-09-12T10:58:18;94110.75;;;20.34;82.21
28131;BME280;15418;42.634;23.374;2022-09-12T11:00:51;94106.63;;;20.28;81.02
28131;BME280;15418;42.634;23.374;2022-09-12T11:03:22;94088.03;;;20.37;81.22
28131;BME280;15418;42.634;23.374;2022-09-12T11:05:56;94110.25;;;20.45;83.11
28131;BME280;15418;42.634;23.374;2022-09-12T11:08:44;94099.22;;;20.57;81.23
28131;BME280;15418;42.634;23.374;2022-09-12T11:11:54;94095.31;;;20.58;83.99
28131;BME280;15418;42.634;23.374;2022-09-12T11:14:51;94106.13;;;20.38;86.19
28131;BME280;15418;42.634;23.374;2022-09-12T11:17:45;94089.41;;;20.31;85.69
28131;BME280;15418;42.634;23.374;2022-09-12T11:28:46;94052.25;;;20.37;83.47
28131;BME280;15418;42.634;23.374;2022-09-12T11:34:01;94087.38;;;20.16;83.47
28131;BME280;15418;42.634;23.374;2022-09-12T11:36:46;94115.00;;;20.19;86.51
28131;BME280;15418;42.634;23.374;2022-09-12T11:39:23;94103.63;;;20.33;88.56
28131;BME280;15418;42.634;23.374;2022-09-12T11:42:00;94099.09;;;20.53;83.93
28131;BME280;15418;42.634;23.374;2022-09-12T11:44:40;94083.81;;;20.81;80.11
28131;BME280;15418;42.634;23.374;2022-09-12T11:47:10;94087.06;;;20.99;82.42
28131;BME280;15418;42.634;23.374;2022-09-12T11:49:46;94095.47;;;21.34;82.96
28131;BME280;15418;42.634;23.374;2022-09-12T11:52:18;94099.41;;;21.05;84.22
28131;BME280;15418;42.634;23.374;2022-09-12T11:57:52;94102.53;;;21.03;85.48
28131;BME280;15418;42.634;23.374;2022-09-12T12:05:29;94116.91;;;20.56;90.19
28131;BME280;15418;42.634;23.374;2022-09-12T12:07:59;94099.41;;;20.77;92.81
28131;BME280;15418;42.634;23.374;2022-09-12T12:10:38;94105.19;;;20.59;90.62
28131;BME280;15418;42.634;23.374;2022-09-12T12:15:47;94101.75;;;20.75;85.40
28131;BME280;15418;42.634;23.374;2022-09-12T12:18:21;94108.13;;;20.79;87.62
28131;BME280;15418;42.634;23.374;2022-09-12T12:20:49;94056.31;;;20.28;87.46
28131;BME280;15418;42.634;23.374;2022-09-12T12:23:28;94091.41;;;20.59;87.21
28131;BME280;15418;42.634;23.374;2022-09-12T12:25:59;94096.91;;;20.71;87.04
28131;BME280;15418;42.634;23.374;2022-09-12T12:31:03;94088.03;;;20.91;85.51
28131;BME280;15418;42.634;23.374;2022-09-12T12:38:34;94095.09;;;20.51;89.07
28131;BME280;15418;42.634;23.374;2022-09-12T12:43:45;94092.34;;;20.51;87.91
28131;BME280;15418;42.634;23.374;2022-09-12T12:46:15;94099.25;;;20.45;85.78
28131;BME280;15418;42.634;23.374;2022-09-12T12:49:10;94094.00;;;20.27;86.17
28131;BME280;15418;42.634;23.374;2022-09-12T12:51:54;94103.44;;;20.01;87.50
28131;BME280;15418;42.634;23.374;2022-09-12T12:57:25;94097.38;;;19.83;91.36
28131;BME280;15418;42.634;23.374;2022-09-12T12:59:54;94076.16;;;20.08;90.69
28131;BME280;15418;42.634;23.374;2022-09-12T13:04:52;94017.81;;;20.03;88.25
28131;BME280;15418;42.634;23.374;2022-09-12T13:07:32;94073.75;;;20.72;88.45
28131;BME280;15418;42.634;23.374;2022-09-12T13:09:59;94065.69;;;20.80;85.45
28131;BME280;15418;42.634;23.374;2022-09-12T13:12:33;94095.81;;;21.17;86.32
28131;BME280;15418;42.634;23.374;2022-09-12T13:18:05;94104.19;;;21.20;81.00
28131;BME280;15418;42.634;23.374;2022-09-12T13:20:32;94097.22;;;21.11;84.74
28131;BME280;15418;42.634;23.374;2022-09-12T13:22:59;94085.59;;;20.89;82.39
28131;BME280;15418;42.634;23.374;2022-09-12T13:25:29;94093.28;;;20.96;83.18
28131;BME280;15418;42.634;23.374;2022-09-12T13:30:39;94091.34;;;20.43;87.82
28131;BME280;15418;42.634;23.374;2022-09-12T13:33:19;94053.00;;;19.48;91.30
28131;BME280;15418;42.634;23.374;2022-09-12T13:36:16;94090.81;;;19.63;93.03
28131;BME280;15418;42.634;23.374;2022-09-12T13:44:22;94076.66;;;19.27;95.29
28131;BME280;15418;42.634;23.374;2022-09-12T13:46:49;94092.28;;;19.73;93.24
28131;BME280;15418;42.634;23.374;2022-09-12T13:49:42;94075.25;;;19.80;91.58
28131;BME280;15418;42.634;23.374;2022-09-12T13:52:20;94073.41;;;19.96;92.59
28131;BME280;15418;42.634;23.374;2022-09-12T13:54:51;94080.75;;;20.04;93.16
28131;BME280;15418;42.634;23.374;2022-09-12T13:59:54;94061.50;;;19.80;91.58
28131;BME280;15418;42.634;23.374;2022-09-12T14:02:21;94031.59;;;19.41;89.04
28131;BME280;15418;42.634;23.374;2022-09-12T14:04:48;94059.41;;;19.76;89.97
28131;BME280;15418;42.634;23.374;2022-09-12T14:07:56;94083.47;;;20.29;86.68
28131;BME280;15418;42.634;23.374;2022-09-12T14:10:32;94067.94;;;19.84;89.49
28131;BME280;15418;42.634;23.374;2022-09-12T14:13:19;94083.22;;;20.34;88.00
28131;BME280;15418;42.634;23.374;2022-09-12T14:15:47;94056.44;;;20.06;85.36
28131;BME280;15418;42.634;23.374;2022-09-12T14:18:25;94028.78;;;19.04;86.73
28131;BME280;15418;42.634;23.374;2022-09-12T14:20:53;94052.03;;;19.19;88.80
28131;BME280;15418;42.634;23.374;2022-09-12T14:25:52;94070.19;;;19.69;86.44
28131;BME280;15418;42.634;23.374;2022-09-12T14:28:20;94041.09;;;19.43;87.03
28131;BME280;15418;42.634;23.374;2022-09-12T14:33:52;94082.00;;;19.70;88.30
28131;BME280;15418;42.634;23.374;2022-09-12T14:36:51;94088.19;;;20.04;84.06
28131;BME280;15418;42.634;23.374;2022-09-12T14:42:04;94013.28;;;19.57;84.26
28131;BME280;15418;42.634;23.374;2022-09-12T14:44:31;94089.66;;;20.26;84.11
28131;BME280;15418;42.634;23.374;2022-09-12T14:47:09;94096.28;;;20.50;82.63
28131;BME280;15418;42.634;23.374;2022-09-12T14:49:35;94091.22;;;20.39;84.39
28131;BME280;15418;42.634;23.374;2022-09-12T14:52:04;94071.53;;;20.25;83.15
28131;BME280;15418;42.634;23.374;2022-09-12T14:57:16;94098.78;;;20.55;85.96
28131;BME280;15418;42.634;23.374;2022-09-12T14:59:49;94093.53;;;20.50;85.27
28131;BME280;15418;42.634;23.374;2022-09-12T15:04:48;94066.13;;;20.29;87.38
28131;BME280;15418;42.634;23.374;2022-09-12T15:07:14;94097.34;;;20.33;89.50
28131;BME280;15418;42.634;23.374;2022-09-12T15:09:41;94060.78;;;19.58;90.90
28131;BME280;15418;42.634;23.374;2022-09-12T15:12:09;94036.75;;;19.67;89.19
28131;BME280;15418;42.634;23.374;2022-09-12T15:14:34;94057.91;;;19.29;92.47
28131;BME280;15418;42.634;23.374;2022-09-12T15:17:00;94040.06;;;19.48;90.65
28131;BME280;15418;42.634;23.374;2022-09-12T15:19:25;94016.31;;;19.06;90.86
28131;BME280;15418;42.634;23.374;2022-09-12T15:21:54;94050.63;;;19.00;92.10
28131;BME280;15418;42.634;23.374;2022-09-12T15:24:19;94077.00;;;19.13;94.77
28131;BME280;15418;42.634;23.374;2022-09-12T15:26:45;94080.50;;;19.02;96.42
28131;BME280;15418;42.634;23.374;2022-09-12T15:29:10;94084.38;;;19.01;97.40
28131;BME280;15418;42.634;23.374;2022-09-12T15:31:38;94094.97;;;18.90;98.80